• Join FlightAware (Why Join?)
  • Login
  • US Flag 
08:34AM EDT


 

Airport Tracker/Info


-or-


 

Live Flight TrackerFlight Track Log ✈ N147NA ✈ 05-May-2013 ✈ KLZU - KDNL

Flight Track Log - Related Links

Times and Time Zones

All times are in EDT time to prevent confusion due to time zone crossing. See the N147NA flight status page for this flight to view local times or setup timezone preferences in your user account.

Time Position Orientation Groundspeed Altitude Reporting Facility
EDT Latitude Longitude Course Direction KTS MPH feet Rate Location/Type
05:27PM 33.9675 -83.8986 149° Southeast 152 175 4,000  Level Atlanta Center
05:28PM 33.9422 -83.8561 126° Southeast 162 186 6,000 2,040 Climbing Atlanta Center
05:29PM 33.9214 -83.8061 117° Southeast 162 186 8,100 1,860 Climbing Atlanta Center
05:30PM 33.9044 -83.7483 109° East 162 186 9,800 1,440 Climbing Atlanta Center
05:31PM 33.8919 -83.6808 103° East 181 208 11,000 1,500 Climbing Atlanta Center
05:32PM 33.8667 -83.5320 149° Southeast  Level Estimated
05:32PM 33.8769 -83.6183 106° East 199 229 12,900  Level Atlanta Center
05:33PM 33.8581 -83.5511 109° East 205 236 13,000  Climbing Atlanta Center
05:34PM 33.8408 -83.4786 106° East 215 247 13,000  Level Atlanta Center
05:35PM 33.8239 -83.4086 106° East 215 247 13,000  Level Atlanta Center
05:36PM 33.8047 -83.3364 108° East 226 260 13,000 -300 Level Atlanta Center
05:37PM 33.7833 -83.2639 110° East 226 260 12,500 -720 Descending Atlanta Center
05:38PM 33.7642 -83.1942 108° East 226 260 11,600 -720 Descending Atlanta Center
05:39PM 33.7492 -83.1294 106° East 226 260 11,100 -300 Descending Atlanta Center
05:40PM 33.7339 -83.0572 104° East 226 260 11,100  Level Atlanta Center
05:41PM 33.7147 -82.9900 109° East 220 253 11,100  Level Atlanta Center
05:42PM 33.6931 -82.9178 110° East 220 253 11,100 -180 Level Atlanta Center
05:43PM 33.6758 -82.8481 107° East 220 253 10,800 -420 Descending Atlanta Center
05:45PM 33.6367 -82.7014 108° East 225 259 10,000 -240 Descending Atlanta Center
05:46PM 33.6214 -82.6294 104° East 225 259 10,100  Climbing Atlanta Center
05:47PM 33.6017 -82.5672 111° Southeast 225 259 10,100 -60 Level Atlanta Center
05:48PM 33.5864 -82.4978 105° East 225 259 10,000 -60 Descending Atlanta Center
05:49PM 33.5686 -82.4308 108° East 225 259 10,000 -420 Level Atlanta Center
05:50PM 33.5489 -82.3614 109° East 225 259 9,200 -840 Descending Atlanta Center
05:52PM 33.5104 -82.2417 107° East  Level FlightAware Approximate